Time;durP1;ratioP1;P1;durP2;ratioP2;P2;SDS_P1;SDS_P2;PMS_P1;PMS_P2;Temp;Humidity;BMP_temperature;BMP_pressure;BME280_temperature;BME280_humidity;BME280_pressure;Samples;Min_cycle;Max_cycle;Signal;HPM_P1;HPM_P2
2022/02/22 00:00:39;;;;;;;5.65;2.45;;;;;;;;;;5073506;28;20024;-77
2022/02/22 00:03:05;;;;;;;6.32;2.60;;;;;;;;;;5073230;28;20032;-77
2022/02/22 00:05:31;;;;;;;6.72;2.38;;;;;;;;;;5055328;28;20043;-77
2022/02/22 00:07:57;;;;;;;7.53;2.70;;;;;;;;;;5073333;28;20025;-77
2022/02/22 00:10:23;;;;;;;9.55;3.13;;;;;;;;;;5073033;28;20647;-77
2022/02/22 00:12:49;;;;;;;6.78;2.60;;;;;;;;;;5061734;28;20016;-77
2022/02/22 00:15:16;;;;;;;7.82;2.38;;;;;;;;;;5075589;28;20162;-77
2022/02/22 00:17:42;;;;;;;8.25;2.92;;;;;;;;;;5093462;28;20039;-77
2022/02/22 00:20:09;;;;;;;6.25;2.30;;;;;;;;;;5093635;28;20029;-77
2022/02/22 00:22:35;;;;;;;6.53;2.35;;;;;;;;;;5093414;28;20039;-77
2022/02/22 00:25:02;;;;;;;6.35;2.63;;;;;;;;;;5075039;28;20020;-77
2022/02/22 00:27:28;;;;;;;6.60;2.53;;;;;;;;;;5093637;28;20034;-77
2022/02/22 00:29:54;;;;;;;7.75;2.78;;;;;;;;;;5093081;28;20095;-77
2022/02/22 00:32:21;;;;;;;6.47;2.58;;;;;;;;;;5093000;28;20032;-77
2022/02/22 00:34:47;;;;;;;5.55;2.65;;;;;;;;;;5092835;28;20035;-77
2022/02/22 00:37:13;;;;;;;6.90;2.50;;;;;;;;;;5077096;28;20131;-77
2022/02/22 00:39:40;;;;;;;5.78;2.17;;;;;;;;;;5072677;28;20043;-77
2022/02/22 00:42:06;;;;;;;7.80;2.72;;;;;;;;;;5078749;28;20116;-77
2022/02/22 00:44:32;;;;;;;8.55;3.08;;;;;;;;;;5092978;28;20070;-77
2022/02/22 00:46:58;;;;;;;8.88;3.05;;;;;;;;;;5093570;28;20020;-77
2022/02/22 00:49:24;;;;;;;7.25;2.70;;;;;;;;;;5093031;28;20016;-76
2022/02/22 00:51:50;;;;;;;7.05;2.53;;;;;;;;;;5092361;28;20025;-76
2022/02/22 00:54:16;;;;;;;5.45;2.10;;;;;;;;;;5093025;28;20047;-77
2022/02/22 00:56:43;;;;;;;7.13;2.85;;;;;;;;;;5092980;28;20507;-77
2022/02/22 00:59:10;;;;;;;6.43;2.55;;;;;;;;;;5093068;28;20028;-77
2022/02/22 01:01:36;;;;;;;6.28;2.55;;;;;;;;;;5092246;28;20035;-77
2022/02/22 01:04:02;;;;;;;6.78;2.20;;;;;;;;;;5074617;28;20456;-76
2022/02/22 01:06:28;;;;;;;8.05;2.80;;;;;;;;;;5092366;28;20048;-77
2022/02/22 01:08:54;;;;;;;7.18;2.70;;;;;;;;;;5092756;28;20036;-77
2022/02/22 01:11:20;;;;;;;5.60;2.38;;;;;;;;;;5092351;28;20574;-77
2022/02/22 01:13:46;;;;;;;6.45;2.88;;;;;;;;;;5077609;28;20032;-77
2022/02/22 01:16:12;;;;;;;7.57;2.67;;;;;;;;;;5072603;28;20028;-77
2022/02/22 01:18:38;;;;;;;7.40;3.00;;;;;;;;;;5072442;28;20037;-77
2022/02/22 01:21:04;;;;;;;6.07;2.60;;;;;;;;;;5072462;28;20029;-76
2022/02/22 01:23:31;;;;;;;5.38;2.22;;;;;;;;;;5053838;28;20112;-76
2022/02/22 01:25:58;;;;;;;6.95;2.88;;;;;;;;;;5072549;28;20471;-77
2022/02/22 01:28:24;;;;;;;7.60;2.53;;;;;;;;;;5072684;28;20027;-77
2022/02/22 01:30:50;;;;;;;6.80;2.55;;;;;;;;;;5071904;28;20025;-77
2022/02/22 01:33:17;;;;;;;6.47;2.80;;;;;;;;;;5072935;28;20390;-77
2022/02/22 01:35:43;;;;;;;5.50;2.42;;;;;;;;;;5075705;28;20016;-77
2022/02/22 01:38:09;;;;;;;6.45;2.55;;;;;;;;;;5092600;28;20032;-76
2022/02/22 01:40:35;;;;;;;7.28;2.40;;;;;;;;;;5092110;28;20036;-76
2022/02/22 01:43:01;;;;;;;7.97;2.63;;;;;;;;;;5078004;28;20527;-76
2022/02/22 01:45:27;;;;;;;5.65;2.80;;;;;;;;;;5071860;28;20100;-77
2022/02/22 01:47:53;;;;;;;8.82;2.78;;;;;;;;;;5072111;28;20104;-77
2022/02/22 01:50:19;;;;;;;6.22;2.63;;;;;;;;;;5054157;28;20017;-77
2022/02/22 01:52:45;;;;;;;5.40;2.65;;;;;;;;;;5072354;28;20029;-77
2022/02/22 01:55:12;;;;;;;6.40;2.60;;;;;;;;;;5071920;28;20107;-77
2022/02/22 01:57:38;;;;;;;6.90;3.00;;;;;;;;;;5072039;28;20523;-77
2022/02/22 02:00:08;;;;;;;6.75;2.15;;;;;;;;;;5072265;28;20032;-76
2022/02/22 02:02:35;;;;;;;7.47;2.83;;;;;;;;;;5056683;28;20029;-77
2022/02/22 02:05:01;;;;;;;6.15;2.55;;;;;;;;;;5051962;28;21265;-76
2022/02/22 02:07:27;;;;;;;5.47;2.20;;;;;;;;;;5052081;28;20051;-76
2022/02/22 02:09:53;;;;;;;7.72;2.67;;;;;;;;;;5052319;28;20032;-77
2022/02/22 02:12:20;;;;;;;7.72;2.67;;;;;;;;;;5073012;28;20032;-77
2022/02/22 02:14:46;;;;;;;6.78;2.30;;;;;;;;;;5092555;28;20526;-77
2022/02/22 02:17:12;;;;;;;7.63;2.85;;;;;;;;;;5075169;28;20032;-77
2022/02/22 02:19:40;;;;;;;7.90;2.65;;;;;;;;;;5096557;28;20032;-77
2022/02/22 02:22:06;;;;;;;6.45;2.47;;;;;;;;;;5077392;28;20035;-77
2022/02/22 02:24:32;;;;;;;8.57;2.60;;;;;;;;;;5096223;28;20031;-76
2022/02/22 02:26:59;;;;;;;7.00;2.28;;;;;;;;;;5077888;28;20023;-77
2022/02/22 02:29:29;;;;;;;6.55;2.50;;;;;;;;;;5096284;28;20032;-77
2022/02/22 02:31:56;;;;;;;5.32;2.28;;;;;;;;;;5095482;28;20024;-77
2022/02/22 02:34:23;;;;;;;7.65;2.65;;;;;;;;;;5096076;28;20031;-76
2022/02/22 02:36:49;;;;;;;5.72;2.17;;;;;;;;;;5083016;28;20029;-77
2022/02/22 02:39:16;;;;;;;6.60;2.53;;;;;;;;;;5075643;28;20029;-76
2022/02/22 02:41:42;;;;;;;5.40;2.38;;;;;;;;;;5077912;28;20039;-76
2022/02/22 02:44:13;;;;;;;8.43;3.28;;;;;;;;;;5096417;28;20102;-76
2022/02/22 02:46:39;;;;;;;6.25;2.45;;;;;;;;;;5095648;28;20024;-77
2022/02/22 02:49:06;;;;;;;4.15;2.10;;;;;;;;;;5095783;28;20028;-77
2022/02/22 02:51:32;;;;;;;6.82;2.50;;;;;;;;;;5094892;28;20498;-77
2022/02/22 02:53:59;;;;;;;6.07;2.58;;;;;;;;;;5095455;28;20501;-77
2022/02/22 02:56:25;;;;;;;6.53;2.50;;;;;;;;;;5077030;28;20024;-77
2022/02/22 02:58:52;;;;;;;6.30;2.05;;;;;;;;;;5077242;28;20490;-77
2022/02/22 03:01:18;;;;;;;5.60;2.30;;;;;;;;;;5094625;28;20024;-77
2022/02/22 03:03:45;;;;;;;5.82;2.70;;;;;;;;;;5076997;28;20107;-76
2022/02/22 03:06:11;;;;;;;6.50;2.38;;;;;;;;;;5094966;28;20485;-76
2022/02/22 03:08:37;;;;;;;4.90;2.40;;;;;;;;;;5094942;28;20017;-76
2022/02/22 03:11:03;;;;;;;4.72;2.15;;;;;;;;;;5094673;28;20032;-76
2022/02/22 03:13:29;;;;;;;6.68;2.15;;;;;;;;;;5081705;28;20024;-77
2022/02/22 03:15:55;;;;;;;6.07;2.45;;;;;;;;;;5056533;28;20552;-77
2022/02/22 03:18:22;;;;;;;5.13;2.03;;;;;;;;;;5074694;28;20040;-76
2022/02/22 03:20:48;;;;;;;6.38;2.30;;;;;;;;;;5074789;28;20403;-76
2022/02/22 03:23:14;;;;;;;6.10;2.03;;;;;;;;;;5073872;28;20048;-76
2022/02/22 03:25:40;;;;;;;5.68;1.88;;;;;;;;;;5074458;28;20523;-77
2022/02/22 03:28:08;;;;;;;6.10;2.22;;;;;;;;;;5074008;28;20021;-76
2022/02/22 03:30:34;;;;;;;5.45;2.50;;;;;;;;;;5074380;28;20024;-76
2022/02/22 03:33:01;;;;;;;6.15;2.17;;;;;;;;;;5056266;28;20077;-76
2022/02/22 03:35:27;;;;;;;5.75;2.50;;;;;;;;;;5075363;28;20032;-76
2022/02/22 03:37:53;;;;;;;7.50;2.35;;;;;;;;;;5074455;28;20027;-77
2022/02/22 03:40:19;;;;;;;7.80;2.47;;;;;;;;;;5054414;28;20025;-76
2022/02/22 03:42:46;;;;;;;5.88;2.30;;;;;;;;;;5077983;28;20394;-76
2022/02/22 03:45:12;;;;;;;5.97;2.33;;;;;;;;;;5076223;28;20032;-76
2022/02/22 03:47:39;;;;;;;3.70;1.98;;;;;;;;;;5094070;28;20072;-76
2022/02/22 03:50:06;;;;;;;5.72;2.40;;;;;;;;;;5094449;28;20036;-76
2022/02/22 03:52:33;;;;;;;6.47;3.10;;;;;;;;;;5076121;28;20034;-76
2022/02/22 03:54:59;;;;;;;6.93;2.20;;;;;;;;;;5094436;28;20474;-77
2022/02/22 03:57:25;;;;;;;5.72;2.40;;;;;;;;;;5094013;28;20028;-77
2022/02/22 03:59:51;;;;;;;6.50;2.50;;;;;;;;;;5094050;28;20035;-76
2022/02/22 04:02:17;;;;;;;6.47;2.22;;;;;;;;;;5093162;28;20035;-77
2022/02/22 04:04:43;;;;;;;6.07;2.70;;;;;;;;;;5093885;28;20028;-77
2022/02/22 04:07:09;;;;;;;5.15;2.08;;;;;;;;;;5094047;28;20016;-77
2022/02/22 04:09:36;;;;;;;6.03;2.25;;;;;;;;;;5094098;28;20032;-77
2022/02/22 04:12:02;;;;;;;5.63;2.42;;;;;;;;;;5092598;28;20031;-77
2022/02/22 04:14:28;;;;;;;5.20;2.00;;;;;;;;;;5073492;28;20037;-77
2022/02/22 04:16:55;;;;;;;5.05;2.03;;;;;;;;;;5073594;28;20398;-77
2022/02/22 04:19:21;;;;;;;5.20;2.30;;;;;;;;;;5073246;28;20494;-77
2022/02/22 04:21:47;;;;;;;7.05;2.17;;;;;;;;;;5072849;28;20031;-77
2022/02/22 04:24:13;;;;;;;5.10;2.30;;;;;;;;;;5055411;28;20024;-76
2022/02/22 04:26:39;;;;;;;6.18;2.20;;;;;;;;;;5073512;28;20075;-76
2022/02/22 04:29:05;;;;;;;5.50;2.30;;;;;;;;;;5073081;28;20157;-76
2022/02/22 04:31:38;;;;;;;5.43;2.20;;;;;;;;;;5072598;28;20070;-77
2022/02/22 04:34:04;;;;;;;5.63;2.25;;;;;;;;;;5072872;28;20103;-77
2022/02/22 04:36:31;;;;;;;4.93;2.33;;;;;;;;;;5082939;28;20032;-77
2022/02/22 04:38:57;;;;;;;4.53;2.13;;;;;;;;;;5092722;28;20028;-77
2022/02/22 04:41:23;;;;;;;6.10;2.40;;;;;;;;;;5091434;28;20482;-76
2022/02/22 04:43:49;;;;;;;5.57;2.22;;;;;;;;;;5054697;28;20078;-77
2022/02/22 04:46:15;;;;;;;6.13;2.55;;;;;;;;;;5073266;28;20028;-77
2022/02/22 04:48:42;;;;;;;6.70;2.55;;;;;;;;;;5072941;28;20089;-77
2022/02/22 04:51:08;;;;;;;7.00;2.53;;;;;;;;;;5073149;28;20021;-77
2022/02/22 04:53:34;;;;;;;5.88;2.13;;;;;;;;;;5054156;28;20044;-76
2022/02/22 04:56:00;;;;;;;5.30;2.50;;;;;;;;;;5072993;28;20035;-77
2022/02/22 04:58:26;;;;;;;5.85;2.22;;;;;;;;;;5072811;28;20517;-77
2022/02/22 05:00:52;;;;;;;5.00;1.80;;;;;;;;;;5072989;28;20040;-77
2022/02/22 05:03:18;;;;;;;4.15;1.88;;;;;;;;;;5072096;28;20028;-76
2022/02/22 05:05:44;;;;;;;5.32;2.22;;;;;;;;;;5072520;28;20068;-77
2022/02/22 05:08:10;;;;;;;5.35;2.20;;;;;;;;;;5072747;28;20434;-77
2022/02/22 05:10:36;;;;;;;7.05;2.53;;;;;;;;;;5072718;28;20024;-77
2022/02/22 05:13:03;;;;;;;6.32;2.33;;;;;;;;;;5081471;28;20081;-76
2022/02/22 05:15:33;;;;;;;6.90;2.65;;;;;;;;;;5092603;28;20044;-76
2022/02/22 05:17:59;;;;;;;5.35;2.13;;;;;;;;;;5092745;28;20552;-77
2022/02/22 05:20:25;;;;;;;5.53;2.30;;;;;;;;;;5092577;28;20027;-76
2022/02/22 05:22:51;;;;;;;6.40;2.20;;;;;;;;;;5092703;28;20093;-77
2022/02/22 05:25:17;;;;;;;6.03;2.10;;;;;;;;;;5092649;28;20023;-77
2022/02/22 05:27:44;;;;;;;6.03;2.70;;;;;;;;;;5092427;28;20031;-76
2022/02/22 05:30:11;;;;;;;6.40;2.58;;;;;;;;;;5078380;28;20032;-77
2022/02/22 05:32:37;;;;;;;5.85;2.20;;;;;;;;;;5090590;28;20466;-77
2022/02/22 05:35:04;;;;;;;8.35;2.95;;;;;;;;;;5072556;28;20020;-77
2022/02/22 05:37:30;;;;;;;4.85;2.35;;;;;;;;;;5085924;28;20439;-77
2022/02/22 05:39:56;;;;;;;7.95;2.92;;;;;;;;;;5072174;28;20483;-77
2022/02/22 05:42:23;;;;;;;7.32;2.38;;;;;;;;;;5080598;28;20028;-77
2022/02/22 05:44:49;;;;;;;6.55;2.60;;;;;;;;;;5074108;28;20017;-77
2022/02/22 05:47:16;;;;;;;4.28;2.00;;;;;;;;;;5058945;28;20073;-77
2022/02/22 05:49:42;;;;;;;5.55;2.35;;;;;;;;;;5072016;28;20059;-77
2022/02/22 05:52:08;;;;;;;6.15;2.05;;;;;;;;;;5073946;28;20032;-76
2022/02/22 05:54:35;;;;;;;5.53;2.33;;;;;;;;;;5075840;28;20031;-77
2022/02/22 05:57:01;;;;;;;5.88;2.63;;;;;;;;;;5076069;28;20115;-76
2022/02/22 05:59:27;;;;;;;6.40;2.45;;;;;;;;;;5075764;28;20108;-77
2022/02/22 06:01:53;;;;;;;7.68;2.45;;;;;;;;;;5075786;28;20024;-77
2022/02/22 06:04:19;;;;;;;7.72;2.38;;;;;;;;;;5091554;28;20517;-77
2022/02/22 06:06:45;;;;;;;6.20;2.55;;;;;;;;;;5095809;28;20123;-77
2022/02/22 06:09:12;;;;;;;7.28;2.47;;;;;;;;;;5096112;28;20574;-77
2022/02/22 06:11:38;;;;;;;5.22;2.10;;;;;;;;;;5095557;28;20032;-75
2022/02/22 06:14:05;;;;;;;7.70;2.58;;;;;;;;;;5096789;28;20032;-75
2022/02/22 06:16:31;;;;;;;5.80;2.70;;;;;;;;;;5095578;28;20032;-74
2022/02/22 06:18:57;;;;;;;4.43;1.92;;;;;;;;;;5077677;28;20481;-75
2022/02/22 06:21:23;;;;;;;7.90;2.88;;;;;;;;;;5094978;28;20093;-75
2022/02/22 06:23:49;;;;;;;6.57;2.58;;;;;;;;;;5077335;28;20012;-75
2022/02/22 06:26:16;;;;;;;5.70;2.58;;;;;;;;;;5095650;28;20031;-75
2022/02/22 06:28:42;;;;;;;6.68;2.30;;;;;;;;;;5095544;28;20068;-75
2022/02/22 06:31:08;;;;;;;4.65;2.45;;;;;;;;;;5096044;28;20539;-75
2022/02/22 06:33:34;;;;;;;5.88;2.70;;;;;;;;;;5095241;28;20080;-75
2022/02/22 06:36:01;;;;;;;7.47;2.53;;;;;;;;;;5089807;28;20107;-75
2022/02/22 06:38:27;;;;;;;6.43;2.20;;;;;;;;;;5090763;28;20506;-75
2022/02/22 06:40:53;;;;;;;5.38;2.60;;;;;;;;;;5095140;28;20038;-75
2022/02/22 06:43:19;;;;;;;6.28;2.42;;;;;;;;;;5078655;28;20021;-75
2022/02/22 06:45:45;;;;;;;5.38;2.35;;;;;;;;;;5074843;28;20052;-75
2022/02/22 06:48:14;;;;;;;6.43;2.40;;;;;;;;;;5075261;28;20398;-75
2022/02/22 06:50:40;;;;;;;5.15;2.00;;;;;;;;;;5074965;28;20095;-75
2022/02/22 06:53:06;;;;;;;5.22;2.25;;;;;;;;;;5075422;28;20019;-75
2022/02/22 06:55:33;;;;;;;6.57;2.22;;;;;;;;;;5074953;28;20094;-75
2022/02/22 06:58:06;;;;;;;7.03;2.38;;;;;;;;;;5075254;28;20029;-75
2022/02/22 07:00:37;;;;;;;6.03;2.50;;;;;;;;;;5074924;28;20112;-75
2022/02/22 07:03:04;;;;;;;8.07;2.97;;;;;;;;;;5074185;28;20025;-75
2022/02/22 07:05:31;;;;;;;6.60;2.17;;;;;;;;;;5074815;28;20028;-75
2022/02/22 07:07:57;;;;;;;3.97;2.00;;;;;;;;;;5075065;28;20074;-75
2022/02/22 07:10:24;;;;;;;6.35;2.83;;;;;;;;;;5074488;28;20044;-75
2022/02/22 07:12:50;;;;;;;5.03;1.83;;;;;;;;;;5074890;28;20024;-75
2022/02/22 07:15:16;;;;;;;4.75;2.20;;;;;;;;;;5074906;28;20029;-75
2022/02/22 07:17:45;;;;;;;5.80;2.40;;;;;;;;;;5074594;28;20032;-75
2022/02/22 07:20:13;;;;;;;5.97;2.45;;;;;;;;;;5075055;28;20029;-75
2022/02/22 07:22:39;;;;;;;6.38;2.75;;;;;;;;;;5056717;28;20032;-75
2022/02/22 07:25:06;;;;;;;6.65;2.63;;;;;;;;;;5074882;28;20526;-75
2022/02/22 07:27:32;;;;;;;7.05;2.38;;;;;;;;;;5075231;28;20020;-75
2022/02/22 07:29:58;;;;;;;7.20;2.40;;;;;;;;;;5074468;28;20111;-75
2022/02/22 07:32:25;;;;;;;5.57;2.60;;;;;;;;;;5074203;28;20514;-75
2022/02/22 07:34:51;;;;;;;7.43;2.67;;;;;;;;;;5074553;28;20025;-75
2022/02/22 07:37:17;;;;;;;10.98;2.85;;;;;;;;;;5067022;28;20491;-75
2022/02/22 07:39:43;;;;;;;7.63;2.90;;;;;;;;;;5056319;28;20513;-75
2022/02/22 07:42:09;;;;;;;7.20;3.08;;;;;;;;;;5080850;28;20036;-75
2022/02/22 07:44:35;;;;;;;5.95;2.50;;;;;;;;;;5076883;28;20069;-75
2022/02/22 07:47:01;;;;;;;10.90;3.75;;;;;;;;;;5094097;28;20485;-75
2022/02/22 07:49:27;;;;;;;10.90;3.45;;;;;;;;;;5094260;28;20020;-75
2022/02/22 07:51:53;;;;;;;8.48;2.88;;;;;;;;;;5075181;28;20031;-75
2022/02/22 07:54:20;;;;;;;12.73;3.53;;;;;;;;;;5094569;28;20435;-75
2022/02/22 07:56:46;;;;;;;7.53;2.92;;;;;;;;;;5093648;28;20439;-75
2022/02/22 07:59:12;;;;;;;5.70;2.65;;;;;;;;;;5092498;28;20447;-74
2022/02/22 08:01:38;;;;;;;10.20;3.00;;;;;;;;;;5093398;28;20039;-74
2022/02/22 08:04:05;;;;;;;13.25;3.67;;;;;;;;;;5093965;28;20511;-75
2022/02/22 08:06:31;;;;;;;10.65;3.05;;;;;;;;;;5079587;28;20044;-75
2022/02/22 08:08:57;;;;;;;14.73;3.92;;;;;;;;;;5072139;28;20149;-75
2022/02/22 08:11:25;;;;;;;6.40;2.78;;;;;;;;;;5072945;28;20035;-75
2022/02/22 08:13:52;;;;;;;7.28;2.72;;;;;;;;;;5083088;28;20062;-73
2022/02/22 08:16:18;;;;;;;9.13;2.75;;;;;;;;;;5060876;28;20040;-74
2022/02/22 08:18:45;;;;;;;8.23;2.90;;;;;;;;;;5085755;28;20534;-75
2022/02/22 08:21:11;;;;;;;10.02;3.40;;;;;;;;;;5066627;28;20070;-75
2022/02/22 08:23:37;;;;;;;11.00;2.92;;;;;;;;;;5067602;28;20027;-74
2022/02/22 08:26:04;;;;;;;9.05;3.17;;;;;;;;;;5049360;28;20780;-78
2022/02/22 08:28:30;;;;;;;12.18;3.20;;;;;;;;;;5031022;28;20621;-79
2022/02/22 08:30:57;;;;;;;14.23;3.25;;;;;;;;;;5029369;28;20036;-76
2022/02/22 08:33:23;;;;;;;12.30;3.20;;;;;;;;;;5046927;28;20025;-75
2022/02/22 08:35:49;;;;;;;9.15;3.10;;;;;;;;;;5054375;28;20024;-76
2022/02/22 08:38:17;;;;;;;10.20;3.22;;;;;;;;;;5073684;28;20029;-76
2022/02/22 08:40:43;;;;;;;14.60;3.97;;;;;;;;;;5067762;28;20024;-75
2022/02/22 08:43:10;;;;;;;10.18;3.47;;;;;;;;;;5071655;28;20029;-75
2022/02/22 08:45:36;;;;;;;7.97;2.53;;;;;;;;;;5066611;28;20024;-75
2022/02/22 08:48:02;;;;;;;10.63;2.92;;;;;;;;;;5066388;28;20422;-75
2022/02/22 08:50:28;;;;;;;7.72;2.67;;;;;;;;;;5066855;28;20017;-74
2022/02/22 08:52:54;;;;;;;14.05;3.08;;;;;;;;;;5069108;28;20039;-74
2022/02/22 08:55:20;;;;;;;10.15;3.05;;;;;;;;;;5068875;28;20021;-72
2022/02/22 08:57:46;;;;;;;9.93;3.38;;;;;;;;;;5076859;28;20498;-73
2022/02/22 09:00:14;;;;;;;9.27;3.13;;;;;;;;;;5053532;28;20055;-73
2022/02/22 09:02:41;;;;;;;12.07;2.90;;;;;;;;;;5065406;28;20024;-72
2022/02/22 09:05:07;;;;;;;10.55;2.92;;;;;;;;;;5062530;28;20037;-74
2022/02/22 09:07:34;;;;;;;7.25;2.30;;;;;;;;;;5039089;28;20111;-73
2022/02/22 09:10:00;;;;;;;8.40;3.22;;;;;;;;;;5039544;28;20021;-75
2022/02/22 09:12:27;;;;;;;11.07;3.08;;;;;;;;;;5049380;28;20036;-75
2022/02/22 09:14:57;;;;;;;12.50;2.72;;;;;;;;;;5045912;28;20033;-75
2022/02/22 09:17:24;;;;;;;7.72;2.55;;;;;;;;;;5050757;28;20099;-74
2022/02/22 09:19:50;;;;;;;7.28;2.45;;;;;;;;;;5048914;28;20483;-73
2022/02/22 09:22:19;;;;;;;8.68;2.88;;;;;;;;;;5048171;28;20056;-74
2022/02/22 09:24:46;;;;;;;10.55;3.42;;;;;;;;;;5047432;28;20040;-76
2022/02/22 09:27:12;;;;;;;9.07;3.13;;;;;;;;;;5052388;28;20075;-75
2022/02/22 09:29:41;;;;;;;8.00;2.63;;;;;;;;;;5057029;28;20021;-76
2022/02/22 09:32:07;;;;;;;10.48;3.03;;;;;;;;;;5054946;28;20476;-77
2022/02/22 09:34:33;;;;;;;9.45;2.60;;;;;;;;;;5055189;28;20104;-76
2022/02/22 09:37:03;;;;;;;9.55;3.10;;;;;;;;;;5057816;28;20024;-74
2022/02/22 09:39:29;;;;;;;9.13;2.40;;;;;;;;;;5069771;28;20021;-74
2022/02/22 09:41:55;;;;;;;10.52;2.88;;;;;;;;;;5057301;28;20036;-77
2022/02/22 09:44:22;;;;;;;8.32;2.45;;;;;;;;;;5073181;28;20399;-74
2022/02/22 09:46:48;;;;;;;7.53;2.55;;;;;;;;;;5073376;28;20506;-77
2022/02/22 09:49:14;;;;;;;10.63;3.53;;;;;;;;;;5036888;28;20025;-75
2022/02/22 09:51:41;;;;;;;7.30;2.53;;;;;;;;;;5073566;28;20151;-77
2022/02/22 09:54:07;;;;;;;7.25;2.38;;;;;;;;;;5037024;28;20059;-77
2022/02/22 09:56:33;;;;;;;10.00;2.80;;;;;;;;;;5053910;28;20037;-77
2022/02/22 09:58:59;;;;;;;8.02;3.10;;;;;;;;;;5052872;28;20025;-76
2022/02/22 10:01:28;;;;;;;6.43;2.35;;;;;;;;;;5046890;28;20021;-76
2022/02/22 10:03:58;;;;;;;10.43;3.05;;;;;;;;;;5035376;28;20036;-76
2022/02/22 10:06:25;;;;;;;9.70;3.10;;;;;;;;;;5046108;28;20041;-75
2022/02/22 10:08:56;;;;;;;8.40;2.70;;;;;;;;;;5053628;28;20033;-75
2022/02/22 10:11:22;;;;;;;7.57;3.00;;;;;;;;;;5032484;28;20033;-76
2022/02/22 10:13:48;;;;;;;8.60;2.55;;;;;;;;;;5027445;28;20051;-76
2022/02/22 10:16:15;;;;;;;9.68;2.58;;;;;;;;;;5051860;28;20036;-76
2022/02/22 10:18:59;;;;;;;10.63;2.50;;;;;;;;;;5034856;28;20636;-75
2022/02/22 10:21:25;;;;;;;6.65;2.40;;;;;;;;;;5032344;28;20535;-76
2022/02/22 10:23:51;;;;;;;7.25;2.92;;;;;;;;;;5051688;28;20033;-76
2022/02/22 10:26:22;;;;;;;8.18;2.83;;;;;;;;;;5052421;28;20017;-75
2022/02/22 10:28:48;;;;;;;12.70;2.78;;;;;;;;;;5052476;28;20464;-75
2022/02/22 10:31:14;;;;;;;10.00;2.28;;;;;;;;;;5052847;28;20083;-75
2022/02/22 10:33:43;;;;;;;8.93;2.78;;;;;;;;;;5051949;28;20033;-75
2022/02/22 10:36:16;;;;;;;6.95;2.38;;;;;;;;;;5057509;28;20084;-75
2022/02/22 10:38:43;;;;;;;9.43;2.95;;;;;;;;;;5035111;28;20040;-76
2022/02/22 10:41:19;;;;;;;9.80;3.33;;;;;;;;;;5051079;28;20025;-76
2022/02/22 10:43:53;;;;;;;12.07;3.00;;;;;;;;;;5032967;28;20018;-76
2022/02/22 10:46:24;;;;;;;8.88;2.97;;;;;;;;;;5031420;28;20025;-76
2022/02/22 10:48:50;;;;;;;9.68;3.17;;;;;;;;;;5049301;28;20549;-75
2022/02/22 10:51:19;;;;;;;9.43;2.95;;;;;;;;;;5047991;28;20025;-75
2022/02/22 10:53:50;;;;;;;11.80;3.22;;;;;;;;;;5048416;28;20108;-76
2022/02/22 10:56:17;;;;;;;8.35;2.58;;;;;;;;;;5049199;28;20025;-75
2022/02/22 10:58:44;;;;;;;9.82;3.10;;;;;;;;;;5030770;28;20025;-75
2022/02/22 11:01:13;;;;;;;9.50;2.65;;;;;;;;;;5025998;28;20036;-75
2022/02/22 11:03:40;;;;;;;9.90;3.08;;;;;;;;;;5015393;28;20021;-76
2022/02/22 11:06:07;;;;;;;11.73;2.85;;;;;;;;;;5047893;28;20040;-76
2022/02/22 11:08:34;;;;;;;8.65;3.05;;;;;;;;;;5048092;28;20029;-76
2022/02/22 11:11:05;;;;;;;7.03;2.65;;;;;;;;;;5049324;28;20017;-76
2022/02/22 11:13:32;;;;;;;5.95;2.53;;;;;;;;;;5049511;28;20447;-76
2022/02/22 11:16:14;;;;;;;10.55;2.72;;;;;;;;;;5048459;28;20083;-75
2022/02/22 11:18:48;;;;;;;7.72;2.42;;;;;;;;;;5048343;28;20079;-76
2022/02/22 11:21:15;;;;;;;7.38;2.80;;;;;;;;;;5040980;28;20044;-77
2022/02/22 11:23:42;;;;;;;8.70;2.97;;;;;;;;;;5028384;28;20056;-77
2022/02/22 11:26:25;;;;;;;8.20;2.97;;;;;;;;;;5028251;28;20032;-76
2022/02/22 11:28:52;;;;;;;9.23;2.72;;;;;;;;;;5028142;28;20030;-75
2022/02/22 11:31:20;;;;;;;6.47;2.33;;;;;;;;;;5034244;28;20033;-74
2022/02/22 11:33:47;;;;;;;7.15;2.85;;;;;;;;;;5051430;28;20060;-75
2022/02/22 11:36:24;;;;;;;9.15;2.20;;;;;;;;;;5063679;28;20029;-76
2022/02/22 11:38:52;;;;;;;7.55;2.67;;;;;;;;;;5055359;28;20036;-75
2022/02/22 11:41:24;;;;;;;6.95;2.78;;;;;;;;;;5059061;28;20067;-77
2022/02/22 11:43:52;;;;;;;6.78;2.53;;;;;;;;;;5011992;28;20021;-77
2022/02/22 11:46:18;;;;;;;9.68;2.80;;;;;;;;;;5012187;28;20028;-74
2022/02/22 11:48:44;;;;;;;8.88;2.63;;;;;;;;;;5033749;28;20108;-74
2022/02/22 11:51:12;;;;;;;9.32;2.40;;;;;;;;;;5041647;28;20025;-76
2022/02/22 11:53:38;;;;;;;8.07;2.92;;;;;;;;;;5021613;28;20033;-76
2022/02/22 11:56:05;;;;;;;9.77;3.00;;;;;;;;;;5048153;28;20021;-75
2022/02/22 11:58:36;;;;;;;8.20;2.70;;;;;;;;;;5051049;28;20140;-73
2022/02/22 12:01:05;;;;;;;7.43;2.40;;;;;;;;;;5053549;28;20033;-72
2022/02/22 12:03:41;;;;;;;5.85;2.45;;;;;;;;;;5053365;28;20064;-73
2022/02/22 12:06:09;;;;;;;14.82;6.45;;;;;;;;;;5038909;28;20443;-76
2022/02/22 12:08:40;;;;;;;12.32;3.75;;;;;;;;;;5066627;28;20077;-75
2022/02/22 12:11:08;;;;;;;11.13;3.75;;;;;;;;;;5053095;28;20494;-75
2022/02/22 12:13:43;;;;;;;14.38;3.97;;;;;;;;;;5056871;28;20036;-76
2022/02/22 12:16:17;;;;;;;13.95;5.18;;;;;;;;;;5058494;28;20033;-76
2022/02/22 12:18:44;;;;;;;15.73;4.60;;;;;;;;;;5071326;28;20034;-77
2022/02/22 12:21:10;;;;;;;14.35;5.35;;;;;;;;;;5083998;28;20024;-77
2022/02/22 12:23:40;;;;;;;11.90;4.95;;;;;;;;;;5060447;28;20021;-76
2022/02/22 12:26:07;;;;;;;14.38;4.82;;;;;;;;;;5045917;28;20021;-76
2022/02/22 12:28:42;;;;;;;15.20;4.97;;;;;;;;;;5027515;28;20143;-77
2022/02/22 12:31:09;;;;;;;14.38;4.78;;;;;;;;;;5031893;28;20075;-77
2022/02/22 12:33:36;;;;;;;14.88;5.07;;;;;;;;;;5059463;28;20029;-77
2022/02/22 12:36:15;;;;;;;16.05;5.00;;;;;;;;;;5066791;28;20029;-79
2022/02/22 12:38:41;;;;;;;19.17;5.22;;;;;;;;;;5067695;28;20024;-77
2022/02/22 12:41:14;;;;;;;15.98;5.38;;;;;;;;;;5059835;28;20509;-77
2022/02/22 12:43:44;;;;;;;13.35;4.55;;;;;;;;;;5030543;28;20033;-76
2022/02/22 12:46:10;;;;;;;12.63;4.80;;;;;;;;;;5048117;28;20029;-77
2022/02/22 12:48:42;;;;;;;12.85;4.78;;;;;;;;;;5052369;28;20087;-76
2022/02/22 12:51:08;;;;;;;11.30;4.40;;;;;;;;;;5057298;28;20107;-76
2022/02/22 12:53:34;;;;;;;11.82;4.28;;;;;;;;;;5053930;28;20040;-76
2022/02/22 12:56:00;;;;;;;17.73;5.28;;;;;;;;;;5065347;28;20028;-76
2022/02/22 12:58:33;;;;;;;13.90;4.63;;;;;;;;;;5048186;28;20028;-76
2022/02/22 13:01:13;;;;;;;14.95;5.03;;;;;;;;;;5047162;28;20024;-76
2022/02/22 13:03:43;;;;;;;10.55;4.30;;;;;;;;;;5066543;28;20027;-73
2022/02/22 13:06:12;;;;;;;15.05;5.28;;;;;;;;;;5045770;28;20044;-73
2022/02/22 13:08:39;;;;;;;19.17;4.90;;;;;;;;;;5068234;28;20035;-72
2022/02/22 13:11:05;;;;;;;11.23;4.07;;;;;;;;;;5047950;28;20394;-71
2022/02/22 13:13:32;;;;;;;13.07;3.95;;;;;;;;;;5065768;28;20082;-73
2022/02/22 13:16:09;;;;;;;13.98;4.13;;;;;;;;;;5063281;28;20020;-74
2022/02/22 13:18:35;;;;;;;14.40;4.13;;;;;;;;;;5067600;28;20024;-72
2022/02/22 13:21:22;;;;;;;11.27;4.32;;;;;;;;;;5068017;28;20036;-72
2022/02/22 13:23:48;;;;;;;18.48;4.07;;;;;;;;;;5047683;28;20045;-73
2022/02/22 13:26:14;;;;;;;12.00;3.45;;;;;;;;;;5060443;28;20028;-72
2022/02/22 13:28:47;;;;;;;11.75;4.03;;;;;;;;;;5028439;28;20029;-74
2022/02/22 13:31:18;;;;;;;11.10;3.70;;;;;;;;;;5058962;28;20025;-74
2022/02/22 13:33:45;;;;;;;9.63;3.67;;;;;;;;;;5047601;28;20096;-75
2022/02/22 13:36:12;;;;;;;7.85;3.53;;;;;;;;;;5058032;28;20032;-74
2022/02/22 13:38:38;;;;;;;10.65;3.70;;;;;;;;;;5062940;28;20029;-73
2022/02/22 13:41:08;;;;;;;13.38;4.13;;;;;;;;;;5049296;28;20033;-75
2022/02/22 13:43:34;;;;;;;11.60;3.78;;;;;;;;;;5064156;28;20028;-75
2022/02/22 13:46:01;;;;;;;16.05;4.53;;;;;;;;;;5030633;28;20056;-73
2022/02/22 13:48:30;;;;;;;11.50;3.53;;;;;;;;;;5046574;28;20028;-74
2022/02/22 13:51:09;;;;;;;11.45;3.47;;;;;;;;;;5066303;28;20570;-74
2022/02/22 13:53:36;;;;;;;9.35;3.60;;;;;;;;;;5059436;28;20029;-75
2022/02/22 13:56:08;;;;;;;15.00;5.40;;;;;;;;;;5065861;28;20138;-74
2022/02/22 13:58:34;;;;;;;10.40;3.03;;;;;;;;;;5064676;28;20064;-76
2022/02/22 14:01:04;;;;;;;16.80;4.13;;;;;;;;;;5032183;28;20033;-74
2022/02/22 14:03:31;;;;;;;12.90;4.38;;;;;;;;;;5049397;28;20087;-73
2022/02/22 14:06:00;;;;;;;13.63;3.95;;;;;;;;;;5045404;28;20037;-74
2022/02/22 14:08:26;;;;;;;13.80;4.65;;;;;;;;;;5045919;28;20036;-74
2022/02/22 14:10:52;;;;;;;12.75;4.00;;;;;;;;;;5035405;28;20500;-75
2022/02/22 14:13:20;;;;;;;9.05;3.80;;;;;;;;;;5029238;28;20032;-75
2022/02/22 14:15:46;;;;;;;12.43;3.60;;;;;;;;;;5028870;28;20030;-75
2022/02/22 14:18:13;;;;;;;11.98;3.83;;;;;;;;;;5035733;28;20025;-76
2022/02/22 14:20:39;;;;;;;9.23;3.83;;;;;;;;;;5047814;28;20025;-73
2022/02/22 14:23:06;;;;;;;12.82;3.58;;;;;;;;;;5031455;28;20400;-72
2022/02/22 14:25:32;;;;;;;12.02;3.65;;;;;;;;;;5023682;28;20025;-72
2022/02/22 14:28:02;;;;;;;10.80;3.22;;;;;;;;;;5069035;28;20036;-73
2022/02/22 14:30:30;;;;;;;13.70;4.35;;;;;;;;;;5033056;28;20040;-76
2022/02/22 14:33:00;;;;;;;8.70;3.25;;;;;;;;;;5017375;28;21260;-76
2022/02/22 14:35:26;;;;;;;9.68;3.75;;;;;;;;;;5038889;28;20025;-78
2022/02/22 14:37:52;;;;;;;10.77;4.10;;;;;;;;;;5050871;28;20044;-73
2022/02/22 14:40:19;;;;;;;12.02;3.65;;;;;;;;;;5034494;28;20009;-74